createdAt,value
2022-09-26T00:00:04.993Z,943.94
2022-09-26T00:00:14.967Z,943.94
2022-09-26T00:00:24.969Z,943.93
2022-09-26T00:00:34.952Z,943.93
2022-09-26T00:00:44.968Z,943.93
2022-09-26T00:00:55.014Z,943.92
2022-09-26T00:01:04.997Z,943.92
2022-09-26T00:01:15.087Z,943.92
2022-09-26T00:01:24.989Z,943.92
2022-09-26T00:01:35.042Z,943.92
2022-09-26T00:01:45.004Z,943.92
2022-09-26T00:01:55.078Z,943.91
2022-09-26T00:02:05.093Z,943.91
2022-09-26T00:02:15.002Z,943.91
2022-09-26T00:02:25.056Z,943.91
2022-09-26T00:02:35.020Z,943.91
2022-09-26T00:02:45.106Z,943.91
2022-09-26T00:02:55.020Z,943.91
2022-09-26T00:03:04.976Z,943.91
2022-09-26T00:03:14.977Z,943.91
2022-09-26T00:03:24.985Z,943.90
2022-09-26T00:03:34.979Z,943.90
2022-09-26T00:03:44.981Z,943.91
2022-09-26T00:03:54.981Z,943.90
2022-09-26T00:04:04.983Z,943.91
2022-09-26T00:04:14.981Z,943.91
2022-09-26T00:04:29.094Z,943.90
2022-09-26T00:04:35.984Z,943.90
2022-09-26T00:04:44.991Z,943.90
2022-09-26T00:04:54.984Z,943.89
2022-09-26T00:05:04.985Z,943.89
2022-09-26T00:05:14.984Z,943.89
2022-09-26T00:05:24.986Z,943.88
2022-09-26T00:05:34.988Z,943.88
2022-09-26T00:05:44.990Z,943.88
2022-09-26T00:05:54.995Z,943.87
2022-09-26T00:06:04.989Z,943.87
2022-09-26T00:06:14.990Z,943.87
2022-09-26T00:06:24.996Z,943.86
2022-09-26T00:06:34.993Z,943.86
2022-09-26T00:06:44.991Z,943.86
2022-09-26T00:06:54.993Z,943.85
2022-09-26T00:07:04.996Z,943.85
2022-09-26T00:07:14.994Z,943.84
2022-09-26T00:07:24.997Z,943.84
2022-09-26T00:07:35.001Z,943.83
2022-09-26T00:07:44.999Z,943.83
2022-09-26T00:07:55.000Z,943.83
2022-09-26T00:08:05.000Z,943.82
2022-09-26T00:08:14.997Z,943.82
2022-09-26T00:08:25.003Z,943.82
2022-09-26T00:08:34.998Z,943.81
2022-09-26T00:08:44.998Z,943.81
2022-09-26T00:08:55.002Z,943.81
2022-09-26T00:09:05.009Z,943.81
2022-09-26T00:09:15.205Z,943.81
2022-09-26T00:09:25.004Z,943.80
2022-09-26T00:09:35.007Z,943.80
2022-09-26T00:09:45.007Z,943.80
2022-09-26T00:09:55.003Z,943.80
2022-09-26T00:10:05.006Z,943.79
2022-09-26T00:10:15.001Z,943.79
2022-09-26T00:10:25.003Z,943.79
2022-09-26T00:10:35.005Z,943.79
2022-09-26T00:10:45.008Z,943.79
2022-09-26T00:10:55.006Z,943.79
2022-09-26T00:11:05.007Z,943.78
2022-09-26T00:11:15.021Z,943.78
2022-09-26T00:11:25.008Z,943.78
2022-09-26T00:11:35.011Z,943.78
2022-09-26T00:11:45.010Z,943.78
2022-09-26T00:11:55.019Z,943.77
2022-09-26T00:12:05.006Z,943.77
2022-09-26T00:12:15.008Z,943.77
2022-09-26T00:12:25.008Z,943.76
2022-09-26T00:12:35.010Z,943.76
2022-09-26T00:12:45.013Z,943.76
2022-09-26T00:12:55.009Z,943.77
2022-09-26T00:13:05.015Z,943.76
2022-09-26T00:13:15.014Z,943.76
2022-09-26T00:13:25.016Z,943.75
2022-09-26T00:13:35.037Z,943.75
2022-09-26T00:13:45.014Z,943.75
2022-09-26T00:13:55.012Z,943.75
2022-09-26T00:14:05.017Z,943.74
2022-09-26T00:14:15.019Z,943.74
2022-09-26T00:14:25.021Z,943.74
2022-09-26T00:14:35.016Z,943.74
2022-09-26T00:14:45.021Z,943.74
2022-09-26T00:14:55.025Z,943.74
2022-09-26T00:15:05.022Z,943.74
2022-09-26T00:15:15.019Z,943.74
2022-09-26T00:15:25.025Z,943.74
2022-09-26T00:15:35.023Z,943.74
2022-09-26T00:15:45.026Z,943.74
2022-09-26T00:15:55.025Z,943.74
2022-09-26T00:16:05.023Z,943.73
2022-09-26T00:16:15.066Z,943.73
2022-09-26T00:16:25.094Z,943.73
2022-09-26T00:16:35.065Z,943.73
2022-09-26T00:16:45.078Z,943.73
2022-09-26T00:16:55.128Z,943.73
2022-09-26T00:17:05.130Z,943.73
2022-09-26T00:17:15.122Z,943.73
2022-09-26T00:17:25.029Z,943.73
2022-09-26T00:17:35.061Z,943.72
2022-09-26T00:17:45.033Z,943.72
2022-09-26T00:17:55.036Z,943.72
2022-09-26T00:18:05.035Z,943.72
2022-09-26T00:18:15.034Z,943.72
2022-09-26T00:18:25.038Z,943.72
2022-09-26T00:18:35.042Z,943.72
2022-09-26T00:18:45.039Z,943.72
2022-09-26T00:18:55.041Z,943.72
2022-09-26T00:19:05.078Z,943.72
2022-09-26T00:19:15.268Z,943.73
2022-09-26T00:19:25.040Z,943.73
2022-09-26T00:19:35.041Z,943.73
2022-09-26T00:19:45.043Z,943.73
2022-09-26T00:19:55.047Z,943.73
2022-09-26T00:20:05.043Z,943.73
2022-09-26T00:20:15.045Z,943.73
2022-09-26T00:20:25.047Z,943.73
2022-09-26T00:20:35.046Z,943.73
2022-09-26T00:20:45.048Z,943.72
2022-09-26T00:20:55.050Z,943.73
2022-09-26T00:21:05.052Z,943.73
2022-09-26T00:21:15.055Z,943.72
2022-09-26T00:21:25.051Z,943.72
2022-09-26T00:21:35.050Z,943.72
2022-09-26T00:21:45.051Z,943.72
2022-09-26T00:21:55.051Z,943.72
2022-09-26T00:22:05.061Z,943.72
2022-09-26T00:22:15.052Z,943.72
2022-09-26T00:22:25.056Z,943.72
2022-09-26T00:22:35.041Z,943.72
2022-09-26T00:22:45.062Z,943.72
2022-09-26T00:22:55.055Z,943.72
2022-09-26T00:23:05.055Z,943.72
2022-09-26T00:23:15.063Z,943.72
2022-09-26T00:23:25.064Z,943.72
2022-09-26T00:23:35.062Z,943.72
2022-09-26T00:23:45.069Z,943.72
2022-09-26T00:23:55.060Z,943.73
2022-09-26T00:24:05.069Z,943.72
2022-09-26T00:24:15.067Z,943.73
2022-09-26T00:24:25.067Z,943.72
2022-09-26T00:24:35.055Z,943.72
2022-09-26T00:24:45.067Z,943.72
2022-09-26T00:24:55.067Z,943.72
2022-09-26T00:25:05.103Z,943.72
2022-09-26T00:25:15.072Z,943.72
2022-09-26T00:25:25.069Z,943.72
2022-09-26T00:25:35.069Z,943.71
2022-09-26T00:25:45.079Z,943.71
2022-09-26T00:25:55.067Z,943.71
2022-09-26T00:26:05.067Z,943.70
2022-09-26T00:26:15.075Z,943.70
2022-09-26T00:26:25.069Z,943.70
2022-09-26T00:26:35.074Z,943.70
2022-09-26T00:26:45.068Z,943.70
2022-09-26T00:26:55.069Z,943.69
2022-09-26T00:27:05.071Z,943.69
2022-09-26T00:27:15.073Z,943.69
2022-09-26T00:27:25.072Z,943.69
2022-09-26T00:27:35.076Z,943.69
2022-09-26T00:27:45.075Z,943.69
2022-09-26T00:27:55.077Z,943.69
2022-09-26T00:28:05.078Z,943.69
2022-09-26T00:28:15.082Z,943.69
2022-09-26T00:28:25.111Z,943.68
2022-09-26T00:28:35.078Z,943.68
2022-09-26T00:28:45.079Z,943.67
2022-09-26T00:28:55.086Z,943.68
2022-09-26T00:29:05.150Z,943.68
2022-09-26T00:29:15.219Z,943.67
2022-09-26T00:29:25.083Z,943.68
2022-09-26T00:29:35.098Z,943.67
2022-09-26T00:29:45.073Z,943.67
2022-09-26T00:29:55.083Z,943.67
2022-09-26T00:30:05.087Z,943.67
2022-09-26T00:30:15.086Z,943.67
2022-09-26T00:30:25.111Z,943.67
2022-09-26T00:30:35.122Z,943.67
2022-09-26T00:30:45.170Z,943.67
2022-09-26T00:30:55.192Z,943.67
2022-09-26T00:31:05.149Z,943.68
2022-09-26T00:31:15.168Z,943.68
2022-09-26T00:31:25.091Z,943.68
2022-09-26T00:31:35.096Z,943.68
2022-09-26T00:31:45.097Z,943.67
2022-09-26T00:31:55.094Z,943.67
2022-09-26T00:32:05.094Z,943.67
2022-09-26T00:32:15.100Z,943.67
2022-09-26T00:32:25.094Z,943.68
2022-09-26T00:32:35.081Z,943.68
2022-09-26T00:32:45.102Z,943.67
2022-09-26T00:32:55.097Z,943.67
2022-09-26T00:33:05.101Z,943.67
2022-09-26T00:33:15.101Z,943.67
2022-09-26T00:33:25.106Z,943.67
2022-09-26T00:33:35.099Z,943.67
2022-09-26T00:33:45.100Z,943.67
2022-09-26T00:33:55.110Z,943.67
2022-09-26T00:34:05.102Z,943.67
2022-09-26T00:34:15.107Z,943.67
2022-09-26T00:34:25.101Z,943.66
2022-09-26T00:34:35.102Z,943.66
2022-09-26T00:34:45.106Z,943.66
2022-09-26T00:34:55.106Z,943.66
2022-09-26T00:35:05.106Z,943.66
2022-09-26T00:35:15.117Z,943.66
2022-09-26T00:35:25.113Z,943.65
2022-09-26T00:35:35.109Z,943.65
2022-09-26T00:35:45.108Z,943.64
2022-09-26T00:35:55.110Z,943.64
2022-09-26T00:36:05.119Z,943.64
2022-09-26T00:36:15.110Z,943.65
2022-09-26T00:36:36.911Z,943.64
2022-09-26T00:36:38.457Z,943.64
2022-09-26T00:36:45.113Z,943.65
2022-09-26T00:36:55.115Z,943.64
2022-09-26T00:37:05.118Z,943.64
2022-09-26T00:37:15.115Z,943.64
2022-09-26T00:37:25.116Z,943.64
2022-09-26T00:37:35.122Z,943.64
2022-09-26T00:37:45.120Z,943.64
2022-09-26T00:37:55.119Z,943.63
2022-09-26T00:38:05.124Z,943.63
2022-09-26T00:38:15.120Z,943.63
2022-09-26T00:38:25.125Z,943.63
2022-09-26T00:38:35.126Z,943.63
2022-09-26T00:38:45.122Z,943.63
2022-09-26T00:38:55.121Z,943.63
2022-09-26T00:39:05.248Z,943.63
2022-09-26T00:39:15.286Z,943.63
2022-09-26T00:39:25.126Z,943.62
2022-09-26T00:39:35.131Z,943.62
2022-09-26T00:39:45.128Z,943.62
2022-09-26T00:39:55.125Z,943.62
2022-09-26T00:40:05.130Z,943.61
2022-09-26T00:40:15.154Z,943.61
2022-09-26T00:40:25.268Z,943.61
2022-09-26T00:40:35.211Z,943.60
2022-09-26T00:40:45.171Z,943.60
2022-09-26T00:40:55.171Z,943.60
2022-09-26T00:41:05.129Z,943.59
2022-09-26T00:41:15.128Z,943.59
2022-09-26T00:41:25.128Z,943.59
2022-09-26T00:41:35.129Z,943.59
2022-09-26T00:41:45.131Z,943.58
2022-09-26T00:41:55.115Z,943.58
2022-09-26T00:42:05.137Z,943.57
2022-09-26T00:42:15.134Z,943.57
2022-09-26T00:42:25.136Z,943.57
2022-09-26T00:42:35.140Z,943.56
2022-09-26T00:42:45.134Z,943.56
2022-09-26T00:42:55.141Z,943.56
2022-09-26T00:43:05.135Z,943.55
2022-09-26T00:43:15.140Z,943.56
2022-09-26T00:43:25.139Z,943.55
2022-09-26T00:43:35.138Z,943.55
2022-09-26T00:43:45.140Z,943.55
2022-09-26T00:43:55.139Z,943.54
2022-09-26T00:44:05.140Z,943.54
2022-09-26T00:44:15.146Z,943.54
2022-09-26T00:44:25.144Z,943.54
2022-09-26T00:44:35.143Z,943.54
2022-09-26T00:44:45.149Z,943.53
2022-09-26T00:44:55.142Z,943.52
2022-09-26T00:45:05.145Z,943.53
2022-09-26T00:45:15.155Z,943.52
2022-09-26T00:45:25.151Z,943.53
2022-09-26T00:45:35.254Z,943.52
2022-09-26T00:45:45.217Z,943.52
2022-09-26T00:45:55.218Z,943.52
2022-09-26T00:46:05.197Z,943.52
2022-09-26T00:46:15.177Z,943.52
2022-09-26T00:46:25.208Z,943.51
2022-09-26T00:46:35.154Z,943.51
2022-09-26T00:46:45.157Z,943.51
2022-09-26T00:46:55.153Z,943.51
2022-09-26T00:47:05.151Z,943.50
2022-09-26T00:47:15.152Z,943.50
2022-09-26T00:47:25.153Z,943.50
2022-09-26T00:47:35.156Z,943.50
2022-09-26T00:47:45.158Z,943.49
2022-09-26T00:47:55.157Z,943.49
2022-09-26T00:48:05.156Z,943.49
2022-09-26T00:48:15.160Z,943.49
2022-09-26T00:48:25.160Z,943.48
2022-09-26T00:48:35.159Z,943.48
2022-09-26T00:48:45.160Z,943.48
2022-09-26T00:48:55.165Z,943.48
2022-09-26T00:49:05.166Z,943.48
2022-09-26T00:49:15.305Z,943.47
2022-09-26T00:49:25.166Z,943.47
2022-09-26T00:49:35.188Z,943.47
2022-09-26T00:49:45.164Z,943.46
2022-09-26T00:49:55.170Z,943.46
2022-09-26T00:50:05.167Z,943.46
2022-09-26T00:50:15.172Z,943.45
2022-09-26T00:50:25.167Z,943.45
2022-09-26T00:50:35.171Z,943.45
2022-09-26T00:50:45.167Z,943.45
2022-09-26T00:50:55.171Z,943.45
2022-09-26T00:51:05.169Z,943.45
2022-09-26T00:51:15.174Z,943.45
2022-09-26T00:51:25.155Z,943.45
2022-09-26T00:51:35.171Z,943.45
2022-09-26T00:51:45.170Z,943.45
2022-09-26T00:51:55.175Z,943.45
2022-09-26T00:52:05.170Z,943.44
2022-09-26T00:52:15.157Z,943.45
2022-09-26T00:52:25.172Z,943.45
2022-09-26T00:52:35.172Z,943.45
2022-09-26T00:52:45.176Z,943.45
2022-09-26T00:52:55.188Z,943.45
2022-09-26T00:53:05.177Z,943.45
2022-09-26T00:53:15.176Z,943.44
2022-09-26T00:53:25.183Z,943.44
2022-09-26T00:53:35.177Z,943.44
2022-09-26T00:53:45.184Z,943.44
2022-09-26T00:53:55.178Z,943.44
2022-09-26T00:54:05.183Z,943.44
2022-09-26T00:54:15.187Z,943.44
2022-09-26T00:54:25.179Z,943.43
2022-09-26T00:54:35.182Z,943.44
2022-09-26T00:54:45.182Z,943.43
2022-09-26T00:54:55.182Z,943.44
2022-09-26T00:55:05.186Z,943.44
2022-09-26T00:55:15.181Z,943.44
2022-09-26T00:55:25.180Z,943.44
2022-09-26T00:55:35.189Z,943.44
2022-09-26T00:55:45.185Z,943.43
2022-09-26T00:55:55.182Z,943.43
2022-09-26T00:56:05.189Z,943.42
2022-09-26T00:56:15.185Z,943.42
2022-09-26T00:56:25.207Z,943.42
2022-09-26T00:56:35.186Z,943.41
2022-09-26T00:56:45.185Z,943.41
2022-09-26T00:56:55.194Z,943.41
2022-09-26T00:57:05.192Z,943.40
2022-09-26T00:57:15.196Z,943.40
2022-09-26T00:57:25.190Z,943.40
2022-09-26T00:57:35.221Z,943.40
2022-09-26T00:57:45.193Z,943.40
2022-09-26T00:57:55.191Z,943.39
2022-09-26T00:58:05.204Z,943.39
2022-09-26T00:58:15.195Z,943.39
2022-09-26T00:58:25.202Z,943.39
2022-09-26T00:58:35.192Z,943.39
2022-09-26T00:58:45.193Z,943.39
2022-09-26T00:58:55.197Z,943.39
2022-09-26T00:59:05.245Z,943.39
2022-09-26T00:59:15.413Z,943.39
2022-09-26T00:59:25.194Z,943.40
2022-09-26T00:59:35.198Z,943.40
2022-09-26T00:59:45.195Z,943.40
2022-09-26T00:59:55.197Z,943.40
2022-09-26T01:00:05.196Z,943.39
2022-09-26T01:00:15.205Z,943.39
2022-09-26T01:00:25.199Z,943.39
2022-09-26T01:00:35.261Z,943.39
2022-09-26T01:00:45.203Z,943.38
2022-09-26T01:00:55.352Z,943.38
2022-09-26T01:01:05.362Z,943.38
2022-09-26T01:01:15.328Z,943.38
2022-09-26T01:01:25.323Z,943.37
2022-09-26T01:01:35.290Z,943.37
2022-09-26T01:01:45.345Z,943.37
2022-09-26T01:01:55.469Z,943.37
2022-09-26T01:02:05.451Z,943.36
2022-09-26T01:02:15.333Z,943.36
2022-09-26T01:02:25.310Z,943.36
2022-09-26T01:02:35.287Z,943.35
2022-09-26T01:02:45.237Z,943.35
2022-09-26T01:02:55.212Z,943.35
2022-09-26T01:03:05.215Z,943.34
2022-09-26T01:03:15.216Z,943.34
2022-09-26T01:03:25.221Z,943.34
2022-09-26T01:03:35.222Z,943.34
2022-09-26T01:03:45.218Z,943.33
2022-09-26T01:03:55.215Z,943.33
2022-09-26T01:04:05.219Z,943.33
2022-09-26T01:04:15.226Z,943.32
2022-09-26T01:04:25.215Z,943.32
2022-09-26T01:04:35.219Z,943.32
2022-09-26T01:04:45.225Z,943.31
2022-09-26T01:04:55.225Z,943.31
2022-09-26T01:05:05.223Z,943.31
2022-09-26T01:05:15.220Z,943.31
2022-09-26T01:05:25.207Z,943.31
2022-09-26T01:05:35.221Z,943.31
2022-09-26T01:05:45.223Z,943.30
2022-09-26T01:05:55.236Z,943.29
2022-09-26T01:06:05.226Z,943.29
2022-09-26T01:06:15.225Z,943.28
2022-09-26T01:06:25.228Z,943.28
2022-09-26T01:06:35.226Z,943.28
2022-09-26T01:06:45.229Z,943.27
2022-09-26T01:06:55.298Z,943.27
2022-09-26T01:07:05.236Z,943.27
2022-09-26T01:07:15.233Z,943.26
2022-09-26T01:07:25.235Z,943.26
2022-09-26T01:07:35.232Z,943.26
2022-09-26T01:07:45.235Z,943.25
2022-09-26T01:07:55.233Z,943.25
2022-09-26T01:08:05.236Z,943.25
2022-09-26T01:08:15.235Z,943.25
2022-09-26T01:08:25.239Z,943.25
2022-09-26T01:08:35.243Z,943.25
2022-09-26T01:08:45.246Z,943.24
2022-09-26T01:08:55.241Z,943.24
2022-09-26T01:09:05.271Z,943.24
2022-09-26T01:09:15.481Z,943.24
2022-09-26T01:09:25.246Z,943.23
2022-09-26T01:09:35.244Z,943.23
2022-09-26T01:09:45.244Z,943.23
2022-09-26T01:09:55.251Z,943.22
2022-09-26T01:10:05.250Z,943.22
2022-09-26T01:10:15.248Z,943.22
2022-09-26T01:10:25.250Z,943.22
2022-09-26T01:10:35.256Z,943.22
2022-09-26T01:10:45.333Z,943.22
2022-09-26T01:10:55.257Z,943.22
2022-09-26T01:11:05.252Z,943.22
2022-09-26T01:11:17.144Z,943.22
2022-09-26T01:11:25.253Z,943.21
2022-09-26T01:11:35.252Z,943.22
2022-09-26T01:11:45.254Z,943.22
2022-09-26T01:11:55.259Z,943.22
2022-09-26T01:12:05.259Z,943.22
2022-09-26T01:12:15.260Z,943.21
2022-09-26T01:12:25.258Z,943.21
2022-09-26T01:12:35.260Z,943.21
2022-09-26T01:12:45.261Z,943.21
2022-09-26T01:12:55.261Z,943.21
2022-09-26T01:13:05.263Z,943.21
2022-09-26T01:13:15.261Z,943.20
2022-09-26T01:13:25.267Z,943.20
2022-09-26T01:13:35.263Z,943.20
2022-09-26T01:13:45.262Z,943.20
2022-09-26T01:13:55.267Z,943.19
2022-09-26T01:14:05.263Z,943.19
2022-09-26T01:14:15.268Z,943.18
2022-09-26T01:14:25.250Z,943.18
2022-09-26T01:14:35.266Z,943.17
2022-09-26T01:14:45.268Z,943.17
2022-09-26T01:14:55.266Z,943.16
2022-09-26T01:15:05.272Z,943.16
2022-09-26T01:15:15.271Z,943.15
2022-09-26T01:15:25.273Z,943.15
2022-09-26T01:15:35.271Z,943.14
2022-09-26T01:15:45.273Z,943.14
2022-09-26T01:15:55.275Z,943.13
2022-09-26T01:16:05.278Z,943.12
2022-09-26T01:16:15.371Z,943.12
2022-09-26T01:16:25.313Z,943.12
2022-09-26T01:16:35.337Z,943.11
2022-09-26T01:16:45.371Z,943.11
2022-09-26T01:16:55.348Z,943.10
2022-09-26T01:17:05.320Z,943.10
2022-09-26T01:17:15.278Z,943.10
2022-09-26T01:17:25.280Z,943.09
2022-09-26T01:17:35.283Z,943.09
2022-09-26T01:17:45.284Z,943.08
2022-09-26T01:17:55.280Z,943.08
2022-09-26T01:18:05.282Z,943.08
2022-09-26T01:18:15.281Z,943.07
2022-09-26T01:18:25.287Z,943.07
2022-09-26T01:18:35.289Z,943.07
2022-09-26T01:18:45.293Z,943.06
2022-09-26T01:18:55.287Z,943.06
2022-09-26T01:19:05.295Z,943.06
2022-09-26T01:19:15.337Z,943.05
2022-09-26T01:19:25.285Z,943.05
2022-09-26T01:19:35.290Z,943.05
2022-09-26T01:19:45.289Z,943.05
2022-09-26T01:19:55.286Z,943.05
2022-09-26T01:20:05.287Z,943.04
2022-09-26T01:20:15.288Z,943.04
2022-09-26T01:20:25.288Z,943.04
2022-09-26T01:20:35.295Z,943.04
2022-09-26T01:20:45.288Z,943.04
2022-09-26T01:20:55.290Z,943.04
2022-09-26T01:21:05.288Z,943.03
2022-09-26T01:21:15.293Z,943.03
2022-09-26T01:21:25.295Z,943.03
2022-09-26T01:21:35.320Z,943.03
2022-09-26T01:21:45.295Z,943.03
2022-09-26T01:21:55.296Z,943.03
2022-09-26T01:22:05.300Z,943.04
2022-09-26T01:22:15.294Z,943.04
2022-09-26T01:22:25.297Z,943.04
2022-09-26T01:22:35.299Z,943.04
2022-09-26T01:22:45.298Z,943.03
2022-09-26T01:22:55.300Z,943.03
2022-09-26T01:23:05.304Z,943.04
2022-09-26T01:23:15.288Z,943.03
2022-09-26T01:23:25.304Z,943.03
2022-09-26T01:23:35.302Z,943.03
2022-09-26T01:23:45.299Z,943.03
2022-09-26T01:23:55.300Z,943.03
2022-09-26T01:24:05.302Z,943.03
2022-09-26T01:24:15.302Z,943.03
2022-09-26T01:24:25.306Z,943.03
2022-09-26T01:24:35.304Z,943.03
2022-09-26T01:24:45.308Z,943.02
2022-09-26T01:24:55.316Z,943.02
2022-09-26T01:25:05.316Z,943.02
2022-09-26T01:25:15.311Z,943.02
2022-09-26T01:25:25.305Z,943.01
2022-09-26T01:25:35.333Z,943.01
2022-09-26T01:25:45.302Z,943.01
2022-09-26T01:25:55.312Z,943.01
2022-09-26T01:26:05.310Z,943.01
2022-09-26T01:26:15.311Z,943.01
2022-09-26T01:26:25.316Z,943.01
2022-09-26T01:26:35.300Z,943.01
2022-09-26T01:26:45.313Z,943.01
2022-09-26T01:26:55.311Z,943.02
2022-09-26T01:27:05.316Z,943.01
2022-09-26T01:27:15.315Z,943.01
2022-09-26T01:27:25.313Z,943.01
2022-09-26T01:27:35.314Z,943.01
2022-09-26T01:27:45.314Z,943.01
2022-09-26T01:27:55.301Z,943.01
2022-09-26T01:28:05.314Z,943.01
2022-09-26T01:28:15.315Z,943.01
2022-09-26T01:28:25.325Z,943.01
2022-09-26T01:28:35.314Z,943.00
2022-09-26T01:28:45.315Z,943.00
2022-09-26T01:28:55.313Z,943.00
2022-09-26T01:29:05.325Z,943.00
2022-09-26T01:29:15.466Z,943.00
2022-09-26T01:29:25.323Z,943.00
2022-09-26T01:29:35.322Z,943.00
2022-09-26T01:29:45.317Z,943.00
2022-09-26T01:29:55.323Z,942.99
2022-09-26T01:30:05.321Z,942.99
2022-09-26T01:30:15.326Z,942.99
2022-09-26T01:30:25.353Z,942.98
2022-09-26T01:30:35.417Z,942.98
2022-09-26T01:30:45.363Z,942.97
2022-09-26T01:30:55.380Z,942.97
2022-09-26T01:31:05.485Z,942.96
2022-09-26T01:31:15.412Z,942.96
2022-09-26T01:31:25.431Z,942.96
2022-09-26T01:31:35.327Z,942.95
2022-09-26T01:31:45.330Z,942.95
2022-09-26T01:31:55.327Z,942.95
2022-09-26T01:32:05.328Z,942.94
2022-09-26T01:32:15.329Z,942.94
2022-09-26T01:32:25.329Z,942.93
2022-09-26T01:32:35.332Z,942.93
2022-09-26T01:32:45.333Z,942.93
2022-09-26T01:32:55.331Z,942.92
2022-09-26T01:33:05.337Z,942.91
2022-09-26T01:33:15.337Z,942.91
2022-09-26T01:33:25.337Z,942.90
2022-09-26T01:33:35.343Z,942.90
2022-09-26T01:33:45.334Z,942.90
2022-09-26T01:33:55.340Z,942.89
2022-09-26T01:34:05.333Z,942.89
2022-09-26T01:34:15.333Z,942.88
2022-09-26T01:34:25.335Z,942.88
2022-09-26T01:34:35.344Z,942.87
2022-09-26T01:34:45.339Z,942.87
2022-09-26T01:34:55.343Z,942.87
2022-09-26T01:35:05.343Z,942.86
2022-09-26T01:35:15.341Z,942.86
2022-09-26T01:35:25.342Z,942.86
2022-09-26T01:35:35.342Z,942.86
2022-09-26T01:35:45.341Z,942.86
2022-09-26T01:35:55.340Z,942.85
2022-09-26T01:36:05.345Z,942.85
2022-09-26T01:36:15.348Z,942.85
2022-09-26T01:36:25.344Z,942.85
2022-09-26T01:36:35.347Z,942.85
2022-09-26T01:36:45.334Z,942.85
2022-09-26T01:36:55.347Z,942.85
2022-09-26T01:37:05.349Z,942.85
2022-09-26T01:37:15.349Z,942.86
2022-09-26T01:37:25.353Z,942.86
2022-09-26T01:37:35.354Z,942.86
2022-09-26T01:37:45.338Z,942.86
2022-09-26T01:37:55.356Z,942.87
2022-09-26T01:38:05.359Z,942.87
2022-09-26T01:38:15.351Z,942.87
2022-09-26T01:38:25.358Z,942.87
2022-09-26T01:38:35.355Z,942.88
2022-09-26T01:38:45.352Z,942.88
2022-09-26T01:38:55.355Z,942.88
2022-09-26T01:39:05.389Z,942.88
2022-09-26T01:39:15.505Z,942.88
2022-09-26T01:39:25.357Z,942.88
2022-09-26T01:39:35.361Z,942.88
2022-09-26T01:39:45.355Z,942.88
2022-09-26T01:39:55.357Z,942.88
2022-09-26T01:40:05.361Z,942.88
2022-09-26T01:40:15.388Z,942.88
2022-09-26T01:40:25.387Z,942.87
2022-09-26T01:40:35.407Z,942.87
2022-09-26T01:40:45.463Z,942.87
2022-09-26T01:40:55.436Z,942.86
2022-09-26T01:41:05.364Z,942.86
2022-09-26T01:41:15.366Z,942.85
2022-09-26T01:41:25.368Z,942.85
2022-09-26T01:41:35.372Z,942.85
2022-09-26T01:41:45.368Z,942.84
2022-09-26T01:41:55.369Z,942.84
2022-09-26T01:42:05.373Z,942.84
2022-09-26T01:42:15.373Z,942.84
2022-09-26T01:42:25.373Z,942.84
2022-09-26T01:42:35.367Z,942.84
2022-09-26T01:42:45.374Z,942.84
2022-09-26T01:42:55.369Z,942.84
2022-09-26T01:43:05.371Z,942.85
2022-09-26T01:43:15.372Z,942.85
2022-09-26T01:43:25.381Z,942.85
2022-09-26T01:43:35.375Z,942.85
2022-09-26T01:43:45.375Z,942.85
2022-09-26T01:43:55.374Z,942.86
2022-09-26T01:44:05.372Z,942.86
2022-09-26T01:44:15.377Z,942.86
2022-09-26T01:44:25.375Z,942.86
2022-09-26T01:44:35.385Z,942.86
2022-09-26T01:44:45.379Z,942.86
2022-09-26T01:44:55.382Z,942.86
2022-09-26T01:45:05.381Z,942.86
2022-09-26T01:45:15.383Z,942.87
2022-09-26T01:45:25.383Z,942.86
2022-09-26T01:45:35.462Z,942.86
2022-09-26T01:45:45.442Z,942.86
2022-09-26T01:45:55.417Z,942.87
2022-09-26T01:46:05.423Z,942.87
2022-09-26T01:46:15.508Z,942.86
2022-09-26T01:46:25.468Z,942.86
2022-09-26T01:46:35.388Z,942.87
2022-09-26T01:46:45.387Z,942.87
2022-09-26T01:46:55.386Z,942.87
2022-09-26T01:47:05.390Z,942.87
2022-09-26T01:47:15.408Z,942.87
2022-09-26T01:47:25.391Z,942.86
2022-09-26T01:47:35.391Z,942.86
2022-09-26T01:47:45.393Z,942.86
2022-09-26T01:47:55.391Z,942.86
2022-09-26T01:48:05.394Z,942.86
2022-09-26T01:48:15.398Z,942.86
2022-09-26T01:48:25.397Z,942.86
2022-09-26T01:48:35.397Z,942.86
2022-09-26T01:48:45.398Z,942.85
2022-09-26T01:48:55.396Z,942.85
2022-09-26T01:49:05.420Z,942.85
2022-09-26T01:49:15.512Z,942.85
2022-09-26T01:49:25.399Z,942.85
2022-09-26T01:49:35.401Z,942.85
2022-09-26T01:49:45.400Z,942.84
2022-09-26T01:49:55.402Z,942.84
2022-09-26T01:50:05.400Z,942.84
2022-09-26T01:50:15.405Z,942.84
2022-09-26T01:50:25.404Z,942.83
2022-09-26T01:50:35.404Z,942.83
2022-09-26T01:50:45.404Z,942.83
2022-09-26T01:50:55.404Z,942.82
2022-09-26T01:51:05.407Z,942.82
2022-09-26T01:51:15.409Z,942.82
2022-09-26T01:51:25.406Z,942.82
2022-09-26T01:51:35.410Z,942.82
2022-09-26T01:51:45.414Z,942.82
2022-09-26T01:51:55.409Z,942.82
2022-09-26T01:52:05.448Z,942.81
2022-09-26T01:52:15.410Z,942.81
2022-09-26T01:52:25.413Z,942.81
2022-09-26T01:52:35.415Z,942.81
2022-09-26T01:52:45.422Z,942.81
2022-09-26T01:52:55.418Z,942.80
2022-09-26T01:53:05.402Z,942.80
2022-09-26T01:53:15.416Z,942.80
2022-09-26T01:53:25.415Z,942.79
2022-09-26T01:53:35.413Z,942.79
2022-09-26T01:53:45.411Z,942.78
2022-09-26T01:53:55.418Z,942.78
2022-09-26T01:54:05.419Z,942.78
2022-09-26T01:54:15.417Z,942.78
2022-09-26T01:54:25.419Z,942.78
2022-09-26T01:54:35.420Z,942.77
2022-09-26T01:54:45.422Z,942.77
2022-09-26T01:54:55.420Z,942.77
2022-09-26T01:55:05.424Z,942.77
2022-09-26T01:55:15.426Z,942.76
2022-09-26T01:55:25.423Z,942.76
2022-09-26T01:55:35.428Z,942.76
2022-09-26T01:55:45.423Z,942.76
2022-09-26T01:55:55.422Z,942.76
2022-09-26T01:56:05.434Z,942.75
2022-09-26T01:56:15.427Z,942.75
2022-09-26T01:56:25.424Z,942.74
2022-09-26T01:56:35.435Z,942.74
2022-09-26T01:56:45.426Z,942.74
2022-09-26T01:56:55.429Z,942.74
2022-09-26T01:57:05.441Z,942.74
2022-09-26T01:57:15.428Z,942.74
2022-09-26T01:57:25.431Z,942.74
2022-09-26T01:57:35.436Z,942.74
2022-09-26T01:57:45.430Z,942.75
2022-09-26T01:57:55.432Z,942.75
2022-09-26T01:58:05.435Z,942.75
2022-09-26T01:58:15.434Z,942.75
2022-09-26T01:58:25.439Z,942.75
2022-09-26T01:58:35.437Z,942.75
2022-09-26T01:58:45.440Z,942.75
2022-09-26T01:58:55.438Z,942.75
2022-09-26T01:59:05.444Z,942.74
2022-09-26T01:59:15.495Z,942.75
2022-09-26T01:59:25.445Z,942.74
2022-09-26T01:59:35.437Z,942.74
2022-09-26T01:59:45.439Z,942.73
2022-09-26T01:59:55.438Z,942.73
2022-09-26T02:00:05.446Z,942.73
2022-09-26T02:00:15.442Z,942.73
2022-09-26T02:00:25.439Z,942.73
2022-09-26T02:00:35.443Z,942.73
2022-09-26T02:00:45.518Z,942.73
2022-09-26T02:00:55.464Z,942.73
2022-09-26T02:01:05.493Z,942.73
2022-09-26T02:01:15.539Z,942.74
2022-09-26T02:01:25.513Z,942.74
2022-09-26T02:01:35.549Z,942.74
2022-09-26T02:01:45.516Z,942.74
2022-09-26T02:01:55.520Z,942.75
2022-09-26T02:02:05.493Z,942.75
2022-09-26T02:02:15.486Z,942.75
2022-09-26T02:02:25.569Z,942.75
2022-09-26T02:02:35.528Z,942.75
2022-09-26T02:02:45.577Z,942.75
2022-09-26T02:02:55.451Z,942.75
2022-09-26T02:03:05.457Z,942.75
2022-09-26T02:03:15.452Z,942.75
2022-09-26T02:03:25.456Z,942.75
2022-09-26T02:03:35.452Z,942.74
2022-09-26T02:03:45.463Z,942.74
2022-09-26T02:03:55.457Z,942.74
2022-09-26T02:04:05.458Z,942.73
2022-09-26T02:04:15.454Z,942.73
2022-09-26T02:04:25.456Z,942.73
2022-09-26T02:04:35.457Z,942.72
2022-09-26T02:04:45.458Z,942.71